sensor_id;sensor_type;location;lat;lon;timestamp;temperature;humidity
39665;DHT22;26679;50.872;4.332;2023-02-26T00:01:16;4.50;99.90
39665;DHT22;26679;50.872;4.332;2023-02-26T00:06:12;4.70;99.80
39665;DHT22;26679;50.872;4.332;2023-02-26T00:08:38;4.70;99.60
39665;DHT22;26679;50.872;4.332;2023-02-26T00:11:07;5.70;99.90
39665;DHT22;26679;50.872;4.332;2023-02-26T00:13:32;4.60;99.90
39665;DHT22;26679;50.872;4.332;2023-02-26T00:16:00;4.60;99.90
39665;DHT22;26679;50.872;4.332;2023-02-26T00:31:08;4.50;99.90
39665;DHT22;26679;50.872;4.332;2023-02-26T00:41:27;4.40;99.90
39665;DHT22;26679;50.872;4.332;2023-02-26T00:43:53;4.30;99.90
39665;DHT22;26679;50.872;4.332;2023-02-26T00:49:06;4.30;99.90
39665;DHT22;26679;50.872;4.332;2023-02-26T00:56:39;4.40;99.90
39665;DHT22;26679;50.872;4.332;2023-02-26T00:59:04;4.30;99.90
39665;DHT22;26679;50.872;4.332;2023-02-26T01:01:30;4.40;99.90
39665;DHT22;26679;50.872;4.332;2023-02-26T01:14:12;4.00;99.90
39665;DHT22;26679;50.872;4.332;2023-02-26T01:16:41;4.00;99.90
39665;DHT22;26679;50.872;4.332;2023-02-26T01:19:12;4.00;99.90
39665;DHT22;26679;50.872;4.332;2023-02-26T01:24:11;3.90;99.90
39665;DHT22;26679;50.872;4.332;2023-02-26T01:26:38;3.80;99.90
39665;DHT22;26679;50.872;4.332;2023-02-26T01:29:04;3.60;99.90
39665;DHT22;26679;50.872;4.332;2023-02-26T01:33:57;3.60;99.90
39665;DHT22;26679;50.872;4.332;2023-02-26T01:49:15;3.30;99.90
39665;DHT22;26679;50.872;4.332;2023-02-26T01:51:48;3.40;99.90
39665;DHT22;26679;50.872;4.332;2023-02-26T01:59:26;3.60;99.90
39665;DHT22;26679;50.872;4.332;2023-02-26T02:01:52;3.50;99.90
39665;DHT22;26679;50.872;4.332;2023-02-26T02:04:18;3.40;99.90
39665;DHT22;26679;50.872;4.332;2023-02-26T02:06:44;3.40;99.90
39665;DHT22;26679;50.872;4.332;2023-02-26T02:09:11;3.40;99.90
39665;DHT22;26679;50.872;4.332;2023-02-26T02:11:40;3.40;99.90
39665;DHT22;26679;50.872;4.332;2023-02-26T02:16:40;3.00;99.90
39665;DHT22;26679;50.872;4.332;2023-02-26T02:26:57;2.90;99.90
39665;DHT22;26679;50.872;4.332;2023-02-26T02:29:31;3.00;99.90
39665;DHT22;26679;50.872;4.332;2023-02-26T02:31:58;2.90;99.90
39665;DHT22;26679;50.872;4.332;2023-02-26T02:34:36;2.90;99.90
39665;DHT22;26679;50.872;4.332;2023-02-26T02:39:46;2.80;99.90
39665;DHT22;26679;50.872;4.332;2023-02-26T02:44:48;3.00;99.90
39665;DHT22;26679;50.872;4.332;2023-02-26T02:47:16;3.20;99.90
39665;DHT22;26679;50.872;4.332;2023-02-26T02:52:22;3.20;99.90
39665;DHT22;26679;50.872;4.332;2023-02-26T02:54:50;3.50;99.90
39665;DHT22;26679;50.872;4.332;2023-02-26T03:07:36;3.60;99.90
39665;DHT22;26679;50.872;4.332;2023-02-26T03:10:03;3.60;99.90
39665;DHT22;26679;50.872;4.332;2023-02-26T03:12:30;3.70;99.90
39665;DHT22;26679;50.872;4.332;2023-02-26T03:14:55;3.80;99.90
39665;DHT22;26679;50.872;4.332;2023-02-26T03:17:25;3.80;99.90
39665;DHT22;26679;50.872;4.332;2023-02-26T03:20:12;3.90;99.90
39665;DHT22;26679;50.872;4.332;2023-02-26T03:30:44;3.70;99.90
39665;DHT22;26679;50.872;4.332;2023-02-26T03:33:12;3.50;99.90
39665;DHT22;26679;50.872;4.332;2023-02-26T03:40:49;3.10;99.90
39665;DHT22;26679;50.872;4.332;2023-02-26T03:45:55;3.10;99.90
39665;DHT22;26679;50.872;4.332;2023-02-26T03:48:23;2.60;99.90
39665;DHT22;26679;50.872;4.332;2023-02-26T03:50:51;3.30;99.90
39665;DHT22;26679;50.872;4.332;2023-02-26T03:53:20;3.20;99.90
39665;DHT22;26679;50.872;4.332;2023-02-26T03:58:14;3.10;99.90
39665;DHT22;26679;50.872;4.332;2023-02-26T04:00:41;3.10;99.90
39665;DHT22;26679;50.872;4.332;2023-02-26T04:03:17;3.70;99.90
39665;DHT22;26679;50.872;4.332;2023-02-26T04:05:46;2.90;99.90
39665;DHT22;26679;50.872;4.332;2023-02-26T04:08:12;2.90;99.90
39665;DHT22;26679;50.872;4.332;2023-02-26T04:11:20;2.90;99.90
39665;DHT22;26679;50.872;4.332;2023-02-26T04:13:26;2.90;99.90
39665;DHT22;26679;50.872;4.332;2023-02-26T04:15:52;2.80;99.90
39665;DHT22;26679;50.872;4.332;2023-02-26T04:18:18;2.90;99.90
39665;DHT22;26679;50.872;4.332;2023-02-26T04:20:43;4.00;99.90
39665;DHT22;26679;50.872;4.332;2023-02-26T04:23:09;2.80;99.90
39665;DHT22;26679;50.872;4.332;2023-02-26T04:25:34;2.90;99.90
39665;DHT22;26679;50.872;4.332;2023-02-26T04:28:00;2.70;99.90
39665;DHT22;26679;50.872;4.332;2023-02-26T04:30:26;2.60;99.90
39665;DHT22;26679;50.872;4.332;2023-02-26T04:32:51;3.70;99.90
39665;DHT22;26679;50.872;4.332;2023-02-26T04:35:17;2.60;99.90
39665;DHT22;26679;50.872;4.332;2023-02-26T04:37:43;2.60;99.90
39665;DHT22;26679;50.872;4.332;2023-02-26T04:40:09;2.40;99.90
39665;DHT22;26679;50.872;4.332;2023-02-26T04:42:34;2.40;99.90
39665;DHT22;26679;50.872;4.332;2023-02-26T04:45:00;2.50;99.90
39665;DHT22;26679;50.872;4.332;2023-02-26T04:47:25;2.40;99.90
39665;DHT22;26679;50.872;4.332;2023-02-26T04:49:51;2.40;99.90
39665;DHT22;26679;50.872;4.332;2023-02-26T04:52:16;2.40;99.90
39665;DHT22;26679;50.872;4.332;2023-02-26T04:54:42;2.30;99.90
39665;DHT22;26679;50.872;4.332;2023-02-26T04:57:07;3.20;99.90
39665;DHT22;26679;50.872;4.332;2023-02-26T04:59:34;3.90;99.90
39665;DHT22;26679;50.872;4.332;2023-02-26T05:01:59;2.30;99.90
39665;DHT22;26679;50.872;4.332;2023-02-26T05:04:25;2.30;99.90
39665;DHT22;26679;50.872;4.332;2023-02-26T05:06:51;2.20;99.90
39665;DHT22;26679;50.872;4.332;2023-02-26T05:19:30;2.30;99.90
39665;DHT22;26679;50.872;4.332;2023-02-26T05:21:56;2.30;99.90
39665;DHT22;26679;50.872;4.332;2023-02-26T05:24:21;2.30;99.90
39665;DHT22;26679;50.872;4.332;2023-02-26T05:29:17;2.10;99.90
39665;DHT22;26679;50.872;4.332;2023-02-26T05:31:42;2.10;99.90
39665;DHT22;26679;50.872;4.332;2023-02-26T05:36:41;2.20;99.90
39665;DHT22;26679;50.872;4.332;2023-02-26T05:39:07;2.40;99.90
39665;DHT22;26679;50.872;4.332;2023-02-26T05:41:33;2.10;99.90
39665;DHT22;26679;50.872;4.332;2023-02-26T05:43:58;2.00;99.90
39665;DHT22;26679;50.872;4.332;2023-02-26T05:46:24;2.00;99.90
39665;DHT22;26679;50.872;4.332;2023-02-26T05:48:49;2.60;99.90
39665;DHT22;26679;50.872;4.332;2023-02-26T05:51:15;2.00;99.90
39665;DHT22;26679;50.872;4.332;2023-02-26T05:53:40;2.00;99.90
39665;DHT22;26679;50.872;4.332;2023-02-26T05:56:06;2.10;99.90
39665;DHT22;26679;50.872;4.332;2023-02-26T05:58:32;2.00;99.90
39665;DHT22;26679;50.872;4.332;2023-02-26T06:03:33;2.00;99.90
39665;DHT22;26679;50.872;4.332;2023-02-26T06:05:59;2.00;99.90
39665;DHT22;26679;50.872;4.332;2023-02-26T06:13:27;1.90;99.90
39665;DHT22;26679;50.872;4.332;2023-02-26T06:15:53;1.90;99.90
39665;DHT22;26679;50.872;4.332;2023-02-26T06:18:18;1.80;99.90
39665;DHT22;26679;50.872;4.332;2023-02-26T06:20:44;1.80;99.90
39665;DHT22;26679;50.872;4.332;2023-02-26T06:23:09;1.80;99.90
39665;DHT22;26679;50.872;4.332;2023-02-26T06:25:35;1.80;99.90
39665;DHT22;26679;50.872;4.332;2023-02-26T06:28:01;2.80;99.90
39665;DHT22;26679;50.872;4.332;2023-02-26T06:30:26;2.50;99.90
39665;DHT22;26679;50.872;4.332;2023-02-26T06:32:53;1.60;99.90
39665;DHT22;26679;50.872;4.332;2023-02-26T06:37:51;1.70;99.90
39665;DHT22;26679;50.872;4.332;2023-02-26T06:40:16;1.70;99.90
39665;DHT22;26679;50.872;4.332;2023-02-26T06:42:42;1.80;99.90
39665;DHT22;26679;50.872;4.332;2023-02-26T06:45:08;1.70;99.90
39665;DHT22;26679;50.872;4.332;2023-02-26T06:47:33;1.60;99.90
39665;DHT22;26679;50.872;4.332;2023-02-26T06:49:59;1.50;99.90
39665;DHT22;26679;50.872;4.332;2023-02-26T06:52:24;1.50;99.90
39665;DHT22;26679;50.872;4.332;2023-02-26T06:54:50;1.50;99.90
39665;DHT22;26679;50.872;4.332;2023-02-26T06:57:15;1.60;99.90
39665;DHT22;26679;50.872;4.332;2023-02-26T06:59:41;1.70;99.90
39665;DHT22;26679;50.872;4.332;2023-02-26T07:02:13;1.60;99.90
39665;DHT22;26679;50.872;4.332;2023-02-26T07:04:43;1.50;99.90
39665;DHT22;26679;50.872;4.332;2023-02-26T07:07:09;1.50;99.90
39665;DHT22;26679;50.872;4.332;2023-02-26T07:09:35;1.40;99.90
39665;DHT22;26679;50.872;4.332;2023-02-26T07:12:00;1.40;99.90
39665;DHT22;26679;50.872;4.332;2023-02-26T07:14:26;2.80;99.90
39665;DHT22;26679;50.872;4.332;2023-02-26T07:16:52;1.40;99.90
39665;DHT22;26679;50.872;4.332;2023-02-26T07:19:17;1.80;99.90
39665;DHT22;26679;50.872;4.332;2023-02-26T07:21:43;1.50;99.90
39665;DHT22;26679;50.872;4.332;2023-02-26T07:24:09;1.40;99.90
39665;DHT22;26679;50.872;4.332;2023-02-26T07:29:09;1.40;99.90
39665;DHT22;26679;50.872;4.332;2023-02-26T07:31:35;1.50;99.90
39665;DHT22;26679;50.872;4.332;2023-02-26T07:34:02;1.60;99.90
39665;DHT22;26679;50.872;4.332;2023-02-26T07:36:28;1.50;99.90
39665;DHT22;26679;50.872;4.332;2023-02-26T07:41:30;1.40;99.90
39665;DHT22;26679;50.872;4.332;2023-02-26T07:49:08;1.50;99.90
39665;DHT22;26679;50.872;4.332;2023-02-26T07:59:16;1.70;99.90
39665;DHT22;26679;50.872;4.332;2023-02-26T08:01:41;1.90;99.90
39665;DHT22;26679;50.872;4.332;2023-02-26T08:04:07;1.90;99.90
39665;DHT22;26679;50.872;4.332;2023-02-26T08:06:33;1.80;99.90
39665;DHT22;26679;50.872;4.332;2023-02-26T08:11:32;1.80;99.90
39665;DHT22;26679;50.872;4.332;2023-02-26T08:16:28;1.70;99.90
39665;DHT22;26679;50.872;4.332;2023-02-26T08:18:54;1.70;99.90
39665;DHT22;26679;50.872;4.332;2023-02-26T08:21:19;1.70;99.90
39665;DHT22;26679;50.872;4.332;2023-02-26T08:26:26;1.80;99.90
39665;DHT22;26679;50.872;4.332;2023-02-26T08:28:52;2.00;99.90
39665;DHT22;26679;50.872;4.332;2023-02-26T08:31:18;3.20;99.90
39665;DHT22;26679;50.872;4.332;2023-02-26T08:33:43;2.80;99.90
39665;DHT22;26679;50.872;4.332;2023-02-26T08:36:09;2.80;99.90
39665;DHT22;26679;50.872;4.332;2023-02-26T08:38:35;3.20;99.90
39665;DHT22;26679;50.872;4.332;2023-02-26T08:41:00;4.20;99.90
39665;DHT22;26679;50.872;4.332;2023-02-26T08:46:02;5.90;96.50
39665;DHT22;26679;50.872;4.332;2023-02-26T08:48:31;5.80;96.60
39665;DHT22;26679;50.872;4.332;2023-02-26T08:50:58;5.40;96.40
39665;DHT22;26679;50.872;4.332;2023-02-26T08:53:25;5.10;95.60
39665;DHT22;26679;50.872;4.332;2023-02-26T08:55:51;7.10;96.40
39665;DHT22;26679;50.872;4.332;2023-02-26T08:58:17;5.00;96.60
39665;DHT22;26679;50.872;4.332;2023-02-26T09:00:43;4.70;97.80
39665;DHT22;26679;50.872;4.332;2023-02-26T09:03:09;5.20;99.20
39665;DHT22;26679;50.872;4.332;2023-02-26T09:05:35;3.40;99.00
39665;DHT22;26679;50.872;4.332;2023-02-26T09:23:27;2.70;99.90
39665;DHT22;26679;50.872;4.332;2023-02-26T09:33:34;2.70;99.90
39665;DHT22;26679;50.872;4.332;2023-02-26T09:36:00;2.70;99.90
39665;DHT22;26679;50.872;4.332;2023-02-26T09:38:25;2.80;99.90
39665;DHT22;26679;50.872;4.332;2023-02-26T09:40:57;2.00;99.70
39665;DHT22;26679;50.872;4.332;2023-02-26T09:46:25;2.90;99.90
39665;DHT22;26679;50.872;4.332;2023-02-26T09:48:47;3.00;99.90
39665;DHT22;26679;50.872;4.332;2023-02-26T09:51:15;3.10;99.40
39665;DHT22;26679;50.872;4.332;2023-02-26T09:53:42;3.20;99.80
39665;DHT22;26679;50.872;4.332;2023-02-26T09:58:42;3.30;99.20
39665;DHT22;26679;50.872;4.332;2023-02-26T10:03:50;3.80;99.80
39665;DHT22;26679;50.872;4.332;2023-02-26T10:09:03;6.00;96.60
39665;DHT22;26679;50.872;4.332;2023-02-26T10:24:42;7.50;92.20
39665;DHT22;26679;50.872;4.332;2023-02-26T10:27:13;7.30;93.00
39665;DHT22;26679;50.872;4.332;2023-02-26T10:29:44;8.30;92.40
39665;DHT22;26679;50.872;4.332;2023-02-26T10:40:03;8.10;90.10
39665;DHT22;26679;50.872;4.332;2023-02-26T10:42:38;9.20;90.20
39665;DHT22;26679;50.872;4.332;2023-02-26T10:50:14;8.70;89.50
39665;DHT22;26679;50.872;4.332;2023-02-26T11:00:19;8.20;90.00
39665;DHT22;26679;50.872;4.332;2023-02-26T11:02:46;8.20;88.20
39665;DHT22;26679;50.872;4.332;2023-02-26T11:05:15;8.60;88.70
39665;DHT22;26679;50.872;4.332;2023-02-26T11:07:40;7.90;89.30
39665;DHT22;26679;50.872;4.332;2023-02-26T11:13:01;7.20;90.20
39665;DHT22;26679;50.872;4.332;2023-02-26T11:15:28;6.70;90.50
39665;DHT22;26679;50.872;4.332;2023-02-26T11:17:56;6.30;91.00
39665;DHT22;26679;50.872;4.332;2023-02-26T11:35:56;12.30;83.10
39665;DHT22;26679;50.872;4.332;2023-02-26T11:41:43;12.70;78.60
39665;DHT22;26679;50.872;4.332;2023-02-26T11:44:13;15.10;78.80
39665;DHT22;26679;50.872;4.332;2023-02-26T11:46:48;15.20;74.90
39665;DHT22;26679;50.872;4.332;2023-02-26T11:49:19;15.60;75.20
39665;DHT22;26679;50.872;4.332;2023-02-26T11:51:46;14.70;72.50
39665;DHT22;26679;50.872;4.332;2023-02-26T11:54:22;12.70;75.20
39665;DHT22;26679;50.872;4.332;2023-02-26T11:56:51;12.70;76.10
39665;DHT22;26679;50.872;4.332;2023-02-26T11:59:20;12.00;78.10
39665;DHT22;26679;50.872;4.332;2023-02-26T12:01:49;12.10;78.10
39665;DHT22;26679;50.872;4.332;2023-02-26T12:04:19;13.20;78.50
39665;DHT22;26679;50.872;4.332;2023-02-26T12:06:45;14.90;78.00
39665;DHT22;26679;50.872;4.332;2023-02-26T12:09:12;15.70;76.00
39665;DHT22;26679;50.872;4.332;2023-02-26T12:20:01;13.50;74.30
39665;DHT22;26679;50.872;4.332;2023-02-26T12:43:46;13.10;75.20
39665;DHT22;26679;50.872;4.332;2023-02-26T13:04:09;14.60;73.10
39665;DHT22;26679;50.872;4.332;2023-02-26T13:17:09;16.40;70.50
39665;DHT22;26679;50.872;4.332;2023-02-26T13:27:07;14.80;67.90
39665;DHT22;26679;50.872;4.332;2023-02-26T13:29:35;13.40;70.20
39665;DHT22;26679;50.872;4.332;2023-02-26T13:32:03;14.30;70.20
39665;DHT22;26679;50.872;4.332;2023-02-26T13:34:36;14.70;68.60
39665;DHT22;26679;50.872;4.332;2023-02-26T13:37:05;15.10;69.40
39665;DHT22;26679;50.872;4.332;2023-02-26T13:44:51;15.00;68.90
39665;DHT22;26679;50.872;4.332;2023-02-26T13:52:25;15.70;66.30
39665;DHT22;26679;50.872;4.332;2023-02-26T14:02:36;14.40;66.30
39665;DHT22;26679;50.872;4.332;2023-02-26T14:05:06;13.30;67.40
39665;DHT22;26679;50.872;4.332;2023-02-26T14:13:23;11.10;70.30
39665;DHT22;26679;50.872;4.332;2023-02-26T14:37:23;8.10;73.90
39665;DHT22;26679;50.872;4.332;2023-02-26T14:39:54;8.10;74.70
39665;DHT22;26679;50.872;4.332;2023-02-26T14:58:16;7.50;77.60
39665;DHT22;26679;50.872;4.332;2023-02-26T15:00:48;7.30;77.50
39665;DHT22;26679;50.872;4.332;2023-02-26T15:06:01;7.30;77.80
39665;DHT22;26679;50.872;4.332;2023-02-26T15:08:39;7.50;77.40
39665;DHT22;26679;50.872;4.332;2023-02-26T15:16:23;7.30;77.00
39665;DHT22;26679;50.872;4.332;2023-02-26T15:18:56;7.20;78.10
39665;DHT22;26679;50.872;4.332;2023-02-26T15:26:35;7.10;79.20
39665;DHT22;26679;50.872;4.332;2023-02-26T15:29:03;7.30;79.50
39665;DHT22;26679;50.872;4.332;2023-02-26T15:34:11;6.70;80.80
39665;DHT22;26679;50.872;4.332;2023-02-26T15:41:51;6.60;81.90
39665;DHT22;26679;50.872;4.332;2023-02-26T15:44:19;6.80;81.50
39665;DHT22;26679;50.872;4.332;2023-02-26T15:46:47;7.00;81.30
39665;DHT22;26679;50.872;4.332;2023-02-26T15:57:01;6.50;82.10
39665;DHT22;26679;50.872;4.332;2023-02-26T15:59:28;6.50;82.20
39665;DHT22;26679;50.872;4.332;2023-02-26T16:01:55;6.60;82.30
39665;DHT22;26679;50.872;4.332;2023-02-26T16:04:23;6.70;82.00
39665;DHT22;26679;50.872;4.332;2023-02-26T16:06:55;6.60;82.10
39665;DHT22;26679;50.872;4.332;2023-02-26T16:14:36;6.50;82.90
39665;DHT22;26679;50.872;4.332;2023-02-26T16:17:19;6.60;83.20
39665;DHT22;26679;50.872;4.332;2023-02-26T17:24:43;6.30;87.60
39665;DHT22;26679;50.872;4.332;2023-02-26T17:27:21;6.10;87.50
39665;DHT22;26679;50.872;4.332;2023-02-26T17:32:26;5.80;88.40
39665;DHT22;26679;50.872;4.332;2023-02-26T17:35:00;5.70;89.20
39665;DHT22;26679;50.872;4.332;2023-02-26T17:37:30;5.70;89.20
39665;DHT22;26679;50.872;4.332;2023-02-26T17:39:59;5.70;89.70
39665;DHT22;26679;50.872;4.332;2023-02-26T17:45:20;6.00;89.30
39665;DHT22;26679;50.872;4.332;2023-02-26T17:47:50;6.10;89.20
39665;DHT22;26679;50.872;4.332;2023-02-26T17:50:23;6.10;89.30
39665;DHT22;26679;50.872;4.332;2023-02-26T17:52:52;5.90;89.60
39665;DHT22;26679;50.872;4.332;2023-02-26T17:55:18;5.60;90.10
39665;DHT22;26679;50.872;4.332;2023-02-26T17:57:45;5.60;90.10
39665;DHT22;26679;50.872;4.332;2023-02-26T18:08:00;5.70;90.30
39665;DHT22;26679;50.872;4.332;2023-02-26T18:10:27;5.70;90.20
39665;DHT22;26679;50.872;4.332;2023-02-26T18:12:54;5.70;90.60
39665;DHT22;26679;50.872;4.332;2023-02-26T18:15:20;5.70;90.50
39665;DHT22;26679;50.872;4.332;2023-02-26T18:17:46;5.80;90.40
39665;DHT22;26679;50.872;4.332;2023-02-26T18:20:15;5.90;90.70
39665;DHT22;26679;50.872;4.332;2023-02-26T18:27:52;5.90;90.50
39665;DHT22;26679;50.872;4.332;2023-02-26T18:30:25;5.90;90.40
39665;DHT22;26679;50.872;4.332;2023-02-26T18:32:51;5.90;90.30
39665;DHT22;26679;50.872;4.332;2023-02-26T18:35:18;5.80;90.40
39665;DHT22;26679;50.872;4.332;2023-02-26T18:37:44;5.80;90.40
39665;DHT22;26679;50.872;4.332;2023-02-26T18:40:16;5.90;90.50
39665;DHT22;26679;50.872;4.332;2023-02-26T18:42:42;5.80;90.50
39665;DHT22;26679;50.872;4.332;2023-02-26T18:45:11;5.70;90.60
39665;DHT22;26679;50.872;4.332;2023-02-26T18:47:40;5.70;90.70
39665;DHT22;26679;50.872;4.332;2023-02-26T18:50:06;5.60;90.60
39665;DHT22;26679;50.872;4.332;2023-02-26T18:52:32;5.60;90.80
39665;DHT22;26679;50.872;4.332;2023-02-26T18:54:58;5.60;91.00
39665;DHT22;26679;50.872;4.332;2023-02-26T18:57:25;5.60;90.80
39665;DHT22;26679;50.872;4.332;2023-02-26T18:59:51;5.70;90.90
39665;DHT22;26679;50.872;4.332;2023-02-26T19:02:17;5.70;90.90
39665;DHT22;26679;50.872;4.332;2023-02-26T19:04:43;5.70;90.80
39665;DHT22;26679;50.872;4.332;2023-02-26T19:07:10;5.70;90.80
39665;DHT22;26679;50.872;4.332;2023-02-26T19:09:36;5.70;90.90
39665;DHT22;26679;50.872;4.332;2023-02-26T19:12:03;5.60;90.90
39665;DHT22;26679;50.872;4.332;2023-02-26T19:32:37;5.20;91.60
39665;DHT22;26679;50.872;4.332;2023-02-26T19:35:06;5.10;91.60
39665;DHT22;26679;50.872;4.332;2023-02-26T19:37:32;5.00;91.90
39665;DHT22;26679;50.872;4.332;2023-02-26T19:40:00;5.00;91.90
39665;DHT22;26679;50.872;4.332;2023-02-26T19:42:29;5.10;91.80
39665;DHT22;26679;50.872;4.332;2023-02-26T19:44:56;5.20;91.70
39665;DHT22;26679;50.872;4.332;2023-02-26T19:47:23;5.20;91.70
39665;DHT22;26679;50.872;4.332;2023-02-26T19:49:49;5.10;91.80
39665;DHT22;26679;50.872;4.332;2023-02-26T19:52:14;5.00;92.00
39665;DHT22;26679;50.872;4.332;2023-02-26T19:54:40;4.90;92.20
39665;DHT22;26679;50.872;4.332;2023-02-26T19:57:07;5.00;92.30
39665;DHT22;26679;50.872;4.332;2023-02-26T19:59:32;5.00;92.20
39665;DHT22;26679;50.872;4.332;2023-02-26T20:01:58;5.00;92.20
39665;DHT22;26679;50.872;4.332;2023-02-26T20:04:23;4.80;92.50
39665;DHT22;26679;50.872;4.332;2023-02-26T20:06:49;4.70;92.60
39665;DHT22;26679;50.872;4.332;2023-02-26T20:09:15;4.70;92.80
39665;DHT22;26679;50.872;4.332;2023-02-26T20:11:41;4.70;93.10
39665;DHT22;26679;50.872;4.332;2023-02-26T20:14:07;4.70;93.00
39665;DHT22;26679;50.872;4.332;2023-02-26T20:16:33;4.70;93.20
39665;DHT22;26679;50.872;4.332;2023-02-26T20:18:58;4.80;93.20
39665;DHT22;26679;50.872;4.332;2023-02-26T20:21:24;4.80;93.30
39665;DHT22;26679;50.872;4.332;2023-02-26T20:23:51;4.80;93.50
39665;DHT22;26679;50.872;4.332;2023-02-26T20:26:16;4.80;93.40
39665;DHT22;26679;50.872;4.332;2023-02-26T20:28:42;4.80;93.60
39665;DHT22;26679;50.872;4.332;2023-02-26T20:31:08;4.80;93.70
39665;DHT22;26679;50.872;4.332;2023-02-26T20:33:34;4.70;94.00
39665;DHT22;26679;50.872;4.332;2023-02-26T20:36:01;4.80;94.10
39665;DHT22;26679;50.872;4.332;2023-02-26T20:38:27;4.80;94.10
39665;DHT22;26679;50.872;4.332;2023-02-26T20:40:53;4.60;94.50
39665;DHT22;26679;50.872;4.332;2023-02-26T20:43:19;4.60;94.70
39665;DHT22;26679;50.872;4.332;2023-02-26T20:45:44;4.50;95.00
39665;DHT22;26679;50.872;4.332;2023-02-26T20:48:11;4.30;95.10
39665;DHT22;26679;50.872;4.332;2023-02-26T20:51:00;4.20;95.40
39665;DHT22;26679;50.872;4.332;2023-02-26T20:53:26;4.20;95.60
39665;DHT22;26679;50.872;4.332;2023-02-26T20:55:54;5.10;95.90
39665;DHT22;26679;50.872;4.332;2023-02-26T20:58:19;4.10;95.90
39665;DHT22;26679;50.872;4.332;2023-02-26T21:00:45;5.30;96.20
39665;DHT22;26679;50.872;4.332;2023-02-26T21:03:10;4.20;96.00
39665;DHT22;26679;50.872;4.332;2023-02-26T21:05:36;4.10;96.20
39665;DHT22;26679;50.872;4.332;2023-02-26T21:08:02;4.00;96.50
39665;DHT22;26679;50.872;4.332;2023-02-26T21:10:28;4.00;96.60
39665;DHT22;26679;50.872;4.332;2023-02-26T21:12:54;4.00;96.70
39665;DHT22;26679;50.872;4.332;2023-02-26T21:15:19;5.10;97.00
39665;DHT22;26679;50.872;4.332;2023-02-26T21:17:45;4.00;96.80
39665;DHT22;26679;50.872;4.332;2023-02-26T21:20:11;4.00;97.10
39665;DHT22;26679;50.872;4.332;2023-02-26T21:22:40;3.80;97.40
39665;DHT22;26679;50.872;4.332;2023-02-26T21:25:06;3.80;97.70
39665;DHT22;26679;50.872;4.332;2023-02-26T21:27:35;3.80;97.70
39665;DHT22;26679;50.872;4.332;2023-02-26T21:30:02;4.80;97.90
39665;DHT22;26679;50.872;4.332;2023-02-26T21:32:28;4.10;97.90
39665;DHT22;26679;50.872;4.332;2023-02-26T21:34:53;2.20;97.40
39665;DHT22;26679;50.872;4.332;2023-02-26T21:37:20;3.70;98.00
39665;DHT22;26679;50.872;4.332;2023-02-26T21:39:45;4.90;98.60
39665;DHT22;26679;50.872;4.332;2023-02-26T21:42:12;3.60;98.20
39665;DHT22;26679;50.872;4.332;2023-02-26T21:44:38;3.60;98.20
39665;DHT22;26679;50.872;4.332;2023-02-26T21:47:04;3.60;98.30
39665;DHT22;26679;50.872;4.332;2023-02-26T21:49:29;3.60;98.30
39665;DHT22;26679;50.872;4.332;2023-02-26T21:51:56;3.80;98.30
39665;DHT22;26679;50.872;4.332;2023-02-26T21:54:22;3.70;98.40
39665;DHT22;26679;50.872;4.332;2023-02-26T21:56:48;4.30;98.80
39665;DHT22;26679;50.872;4.332;2023-02-26T21:59:13;3.40;98.80
39665;DHT22;26679;50.872;4.332;2023-02-26T22:01:39;3.30;99.10
39665;DHT22;26679;50.872;4.332;2023-02-26T22:04:05;3.30;99.40
39665;DHT22;26679;50.872;4.332;2023-02-26T22:06:31;3.30;99.40
39665;DHT22;26679;50.872;4.332;2023-02-26T22:08:56;3.40;99.30
39665;DHT22;26679;50.872;4.332;2023-02-26T22:11:22;3.40;99.40
39665;DHT22;26679;50.872;4.332;2023-02-26T22:13:47;3.50;99.40
39665;DHT22;26679;50.872;4.332;2023-02-26T22:16:13;3.40;99.40
39665;DHT22;26679;50.872;4.332;2023-02-26T22:18:39;3.40;99.60
39665;DHT22;26679;50.872;4.332;2023-02-26T22:21:04;3.40;99.50
39665;DHT22;26679;50.872;4.332;2023-02-26T22:23:30;3.40;99.40
39665;DHT22;26679;50.872;4.332;2023-02-26T22:25:55;3.30;99.60
39665;DHT22;26679;50.872;4.332;2023-02-26T22:28:21;3.80;99.70
39665;DHT22;26679;50.872;4.332;2023-02-26T22:30:46;3.50;99.40
39665;DHT22;26679;50.872;4.332;2023-02-26T22:33:12;3.40;99.70
39665;DHT22;26679;50.872;4.332;2023-02-26T22:35:37;3.50;99.90
39665;DHT22;26679;50.872;4.332;2023-02-26T22:38:03;3.30;99.80
39665;DHT22;26679;50.872;4.332;2023-02-26T22:40:28;3.40;99.90
39665;DHT22;26679;50.872;4.332;2023-02-26T22:42:54;3.50;99.90
39665;DHT22;26679;50.872;4.332;2023-02-26T22:45:19;3.60;99.80
39665;DHT22;26679;50.872;4.332;2023-02-26T22:47:45;3.50;99.70
39665;DHT22;26679;50.872;4.332;2023-02-26T22:50:13;3.30;99.90
39665;DHT22;26679;50.872;4.332;2023-02-26T22:52:38;3.30;99.90
39665;DHT22;26679;50.872;4.332;2023-02-26T22:55:04;3.40;99.90
39665;DHT22;26679;50.872;4.332;2023-02-26T22:57:30;3.30;99.90
39665;DHT22;26679;50.872;4.332;2023-02-26T22:59:55;3.20;99.90
39665;DHT22;26679;50.872;4.332;2023-02-26T23:02:31;3.20;99.90
39665;DHT22;26679;50.872;4.332;2023-02-26T23:04:56;3.00;99.90
39665;DHT22;26679;50.872;4.332;2023-02-26T23:07:22;3.10;99.90
39665;DHT22;26679;50.872;4.332;2023-02-26T23:09:48;4.40;99.90
39665;DHT22;26679;50.872;4.332;2023-02-26T23:12:13;3.20;99.90
39665;DHT22;26679;50.872;4.332;2023-02-26T23:14:39;4.50;99.90
39665;DHT22;26679;50.872;4.332;2023-02-26T23:17:05;3.00;99.90
39665;DHT22;26679;50.872;4.332;2023-02-26T23:19:31;4.50;99.90
39665;DHT22;26679;50.872;4.332;2023-02-26T23:21:56;1.70;99.90
39665;DHT22;26679;50.872;4.332;2023-02-26T23:24:22;3.00;99.90
39665;DHT22;26679;50.872;4.332;2023-02-26T23:26:48;2.60;99.90
39665;DHT22;26679;50.872;4.332;2023-02-26T23:29:13;4.60;99.90
39665;DHT22;26679;50.872;4.332;2023-02-26T23:31:39;3.40;99.90
39665;DHT22;26679;50.872;4.332;2023-02-26T23:34:05;3.20;99.90
39665;DHT22;26679;50.872;4.332;2023-02-26T23:36:32;4.90;99.90
39665;DHT22;26679;50.872;4.332;2023-02-26T23:38:57;4.70;99.90
39665;DHT22;26679;50.872;4.332;2023-02-26T23:41:23;3.80;99.90
39665;DHT22;26679;50.872;4.332;2023-02-26T23:43:48;2.80;99.90
39665;DHT22;26679;50.872;4.332;2023-02-26T23:46:14;3.10;99.90
39665;DHT22;26679;50.872;4.332;2023-02-26T23:48:39;3.00;99.90
39665;DHT22;26679;50.872;4.332;2023-02-26T23:51:05;4.80;99.90
39665;DHT22;26679;50.872;4.332;2023-02-26T23:53:30;3.80;99.90
39665;DHT22;26679;50.872;4.332;2023-02-26T23:55:56;3.00;99.90
39665;DHT22;26679;50.872;4.332;2023-02-26T23:58:23;3.50;99.90
